Egan, South Dakota
Current Conditions -  °F | °C
As of 12:14 PM on Wednesday 28 Jan 2015 (Local Time) from KPQN Reporting Station
Haze Haze  
Wind Chill: 24°   Ceiling: 700
Heat Index: 34°   Visibility: 4mi
Dew Point: 32°   Wind: 14mph
Humidity: 93%   Direction: 170°S
Pressure: 29.7"   Gusts: 20mph
Location:  44°N, 96.65°W
Report Text: KPQN 281814Z AUTO 17012G17KT 4SM BR OVC007 01/00 A2970 RMK AO2
Loading
Personal Weather Stations






























Interactive Weather Map New forecast layout! Learn more

10-Day Weather Forecast

Advertisements
Track Severe Weather on mobile